sensor_id;sensor_type;location;lat;lon;timestamp;temperature;humidity
32769;DHT22;23049;54.304;8.826;2023-05-16T00:02:06;10.60;99.90
32769;DHT22;23049;54.304;8.826;2023-05-16T00:04:33;10.40;99.90
32769;DHT22;23049;54.304;8.826;2023-05-16T00:06:58;10.40;99.90
32769;DHT22;23049;54.304;8.826;2023-05-16T00:09:24;10.30;99.90
32769;DHT22;23049;54.304;8.826;2023-05-16T00:11:49;10.30;99.90
32769;DHT22;23049;54.304;8.826;2023-05-16T00:14:15;10.30;99.90
32769;DHT22;23049;54.304;8.826;2023-05-16T00:16:40;10.30;99.90
32769;DHT22;23049;54.304;8.826;2023-05-16T00:19:06;10.40;99.90
32769;DHT22;23049;54.304;8.826;2023-05-16T00:21:32;10.30;99.90
32769;DHT22;23049;54.304;8.826;2023-05-16T00:23:57;10.30;99.90
32769;DHT22;23049;54.304;8.826;2023-05-16T00:26:23;10.30;99.90
32769;DHT22;23049;54.304;8.826;2023-05-16T00:28:48;10.30;99.90
32769;DHT22;23049;54.304;8.826;2023-05-16T00:31:14;10.30;99.90
32769;DHT22;23049;54.304;8.826;2023-05-16T00:33:39;10.30;99.90
32769;DHT22;23049;54.304;8.826;2023-05-16T00:36:05;10.30;99.90
32769;DHT22;23049;54.304;8.826;2023-05-16T00:38:30;10.30;99.90
32769;DHT22;23049;54.304;8.826;2023-05-16T00:40:56;10.30;99.90
32769;DHT22;23049;54.304;8.826;2023-05-16T00:43:21;10.30;99.90
32769;DHT22;23049;54.304;8.826;2023-05-16T00:45:47;10.20;99.90
32769;DHT22;23049;54.304;8.826;2023-05-16T00:48:12;10.20;99.90
32769;DHT22;23049;54.304;8.826;2023-05-16T00:50:38;10.30;99.90
32769;DHT22;23049;54.304;8.826;2023-05-16T00:53:04;10.20;99.90
32769;DHT22;23049;54.304;8.826;2023-05-16T00:55:29;10.20;99.90
32769;DHT22;23049;54.304;8.826;2023-05-16T00:57:56;10.10;99.90
32769;DHT22;23049;54.304;8.826;2023-05-16T01:00:22;10.10;99.90
32769;DHT22;23049;54.304;8.826;2023-05-16T01:02:47;10.10;99.90
32769;DHT22;23049;54.304;8.826;2023-05-16T01:05:16;10.00;99.90
32769;DHT22;23049;54.304;8.826;2023-05-16T01:07:41;10.00;99.90
32769;DHT22;23049;54.304;8.826;2023-05-16T01:10:07;10.00;99.90
32769;DHT22;23049;54.304;8.826;2023-05-16T01:12:55;10.00;99.90
32769;DHT22;23049;54.304;8.826;2023-05-16T01:15:29;10.00;99.90
32769;DHT22;23049;54.304;8.826;2023-05-16T01:17:58;10.00;99.90
32769;DHT22;23049;54.304;8.826;2023-05-16T01:20:31;10.00;99.90
32769;DHT22;23049;54.304;8.826;2023-05-16T01:25:55;9.90;99.90
32769;DHT22;23049;54.304;8.826;2023-05-16T01:28:22;9.90;99.90
32769;DHT22;23049;54.304;8.826;2023-05-16T01:30:49;9.90;99.90
32769;DHT22;23049;54.304;8.826;2023-05-16T01:33:15;9.90;99.90
32769;DHT22;23049;54.304;8.826;2023-05-16T01:35:52;9.90;99.90
32769;DHT22;23049;54.304;8.826;2023-05-16T01:38:25;9.90;99.90
32769;DHT22;23049;54.304;8.826;2023-05-16T01:40:57;9.90;99.90
32769;DHT22;23049;54.304;8.826;2023-05-16T01:43:33;9.90;99.90
32769;DHT22;23049;54.304;8.826;2023-05-16T01:46:01;10.00;99.90
32769;DHT22;23049;54.304;8.826;2023-05-16T01:48:30;10.00;99.90
32769;DHT22;23049;54.304;8.826;2023-05-16T01:50:56;10.00;99.90
32769;DHT22;23049;54.304;8.826;2023-05-16T01:53:35;10.00;99.90
32769;DHT22;23049;54.304;8.826;2023-05-16T01:56:01;10.10;99.90
32769;DHT22;23049;54.304;8.826;2023-05-16T01:58:29;10.00;99.90
32769;DHT22;23049;54.304;8.826;2023-05-16T02:01:00;10.00;99.90
32769;DHT22;23049;54.304;8.826;2023-05-16T02:03:26;10.00;99.90
32769;DHT22;23049;54.304;8.826;2023-05-16T02:05:52;9.90;99.90
32769;DHT22;23049;54.304;8.826;2023-05-16T02:08:17;9.90;99.90
32769;DHT22;23049;54.304;8.826;2023-05-16T02:10:43;9.90;99.90
32769;DHT22;23049;54.304;8.826;2023-05-16T02:13:08;9.90;99.90
32769;DHT22;23049;54.304;8.826;2023-05-16T02:15:35;9.90;99.90
32769;DHT22;23049;54.304;8.826;2023-05-16T02:18:00;9.90;99.90
32769;DHT22;23049;54.304;8.826;2023-05-16T02:20:26;10.00;99.90
32769;DHT22;23049;54.304;8.826;2023-05-16T02:22:51;10.00;99.90
32769;DHT22;23049;54.304;8.826;2023-05-16T02:25:17;10.10;99.90
32769;DHT22;23049;54.304;8.826;2023-05-16T02:27:43;10.10;99.90
32769;DHT22;23049;54.304;8.826;2023-05-16T02:30:11;10.00;99.90
32769;DHT22;23049;54.304;8.826;2023-05-16T02:32:37;9.90;99.90
32769;DHT22;23049;54.304;8.826;2023-05-16T02:35:03;9.90;99.90
32769;DHT22;23049;54.304;8.826;2023-05-16T02:37:29;9.90;99.90
32769;DHT22;23049;54.304;8.826;2023-05-16T02:39:54;9.90;99.90
32769;DHT22;23049;54.304;8.826;2023-05-16T02:42:20;9.90;99.90
32769;DHT22;23049;54.304;8.826;2023-05-16T02:44:45;9.80;99.90
32769;DHT22;23049;54.304;8.826;2023-05-16T02:47:11;9.70;99.90
32769;DHT22;23049;54.304;8.826;2023-05-16T02:49:36;9.70;99.90
32769;DHT22;23049;54.304;8.826;2023-05-16T02:52:02;9.60;99.90
32769;DHT22;23049;54.304;8.826;2023-05-16T02:54:27;9.50;99.90
32769;DHT22;23049;54.304;8.826;2023-05-16T02:56:53;9.50;99.90
32769;DHT22;23049;54.304;8.826;2023-05-16T02:59:18;9.40;99.90
32769;DHT22;23049;54.304;8.826;2023-05-16T03:01:44;9.30;99.90
32769;DHT22;23049;54.304;8.826;2023-05-16T03:04:10;9.30;99.90
32769;DHT22;23049;54.304;8.826;2023-05-16T03:06:35;9.30;99.90
32769;DHT22;23049;54.304;8.826;2023-05-16T03:09:01;9.40;99.90
32769;DHT22;23049;54.304;8.826;2023-05-16T03:11:26;9.40;99.90
32769;DHT22;23049;54.304;8.826;2023-05-16T03:13:53;9.40;99.90
32769;DHT22;23049;54.304;8.826;2023-05-16T03:16:18;9.50;99.90
32769;DHT22;23049;54.304;8.826;2023-05-16T03:18:44;9.50;99.90
32769;DHT22;23049;54.304;8.826;2023-05-16T03:21:09;9.50;99.90
32769;DHT22;23049;54.304;8.826;2023-05-16T03:23:35;9.50;99.90
32769;DHT22;23049;54.304;8.826;2023-05-16T03:26:00;9.40;99.90
32769;DHT22;23049;54.304;8.826;2023-05-16T03:30:39;9.30;99.90
32769;DHT22;23049;54.304;8.826;2023-05-16T03:33:04;9.30;99.90
32769;DHT22;23049;54.304;8.826;2023-05-16T03:39:57;9.50;99.90
32769;DHT22;23049;54.304;8.826;2023-05-16T03:42:23;9.60;99.90
32769;DHT22;23049;54.304;8.826;2023-05-16T03:44:48;9.60;99.90
32769;DHT22;23049;54.304;8.826;2023-05-16T03:47:14;9.70;99.90
32769;DHT22;23049;54.304;8.826;2023-05-16T03:49:40;9.70;99.90
32769;DHT22;23049;54.304;8.826;2023-05-16T03:52:05;9.70;99.90
32769;DHT22;23049;54.304;8.826;2023-05-16T03:54:31;9.70;99.90
32769;DHT22;23049;54.304;8.826;2023-05-16T03:56:56;9.60;99.90
32769;DHT22;23049;54.304;8.826;2023-05-16T03:59:22;9.50;99.90
32769;DHT22;23049;54.304;8.826;2023-05-16T04:01:48;9.40;99.90
32769;DHT22;23049;54.304;8.826;2023-05-16T04:04:14;9.40;99.90
32769;DHT22;23049;54.304;8.826;2023-05-16T04:06:39;9.40;99.90
32769;DHT22;23049;54.304;8.826;2023-05-16T04:09:05;9.60;99.90
32769;DHT22;23049;54.304;8.826;2023-05-16T04:11:31;9.80;99.90
32769;DHT22;23049;54.304;8.826;2023-05-16T04:13:56;9.90;99.90
32769;DHT22;23049;54.304;8.826;2023-05-16T04:16:23;9.90;99.90
32769;DHT22;23049;54.304;8.826;2023-05-16T04:18:48;9.90;99.90
32769;DHT22;23049;54.304;8.826;2023-05-16T04:21:14;9.80;99.90
32769;DHT22;23049;54.304;8.826;2023-05-16T04:23:40;9.80;99.90
32769;DHT22;23049;54.304;8.826;2023-05-16T04:26:05;9.80;99.90
32769;DHT22;23049;54.304;8.826;2023-05-16T04:28:31;10.10;99.90
32769;DHT22;23049;54.304;8.826;2023-05-16T04:30:56;10.20;99.90
32769;DHT22;23049;54.304;8.826;2023-05-16T04:33:22;10.20;99.90
32769;DHT22;23049;54.304;8.826;2023-05-16T04:35:47;10.00;99.90
32769;DHT22;23049;54.304;8.826;2023-05-16T04:38:13;10.10;99.90
32769;DHT22;23049;54.304;8.826;2023-05-16T04:40:38;10.30;99.90
32769;DHT22;23049;54.304;8.826;2023-05-16T04:43:06;10.30;99.90
32769;DHT22;23049;54.304;8.826;2023-05-16T04:45:31;10.20;99.90
32769;DHT22;23049;54.304;8.826;2023-05-16T04:47:57;10.40;99.90
32769;DHT22;23049;54.304;8.826;2023-05-16T04:50:22;10.30;99.90
32769;DHT22;23049;54.304;8.826;2023-05-16T04:52:48;10.10;99.90
32769;DHT22;23049;54.304;8.826;2023-05-16T04:55:13;10.10;99.90
32769;DHT22;23049;54.304;8.826;2023-05-16T04:57:39;10.20;99.90
32769;DHT22;23049;54.304;8.826;2023-05-16T05:00:05;10.60;99.90
32769;DHT22;23049;54.304;8.826;2023-05-16T05:02:33;10.90;99.90
32769;DHT22;23049;54.304;8.826;2023-05-16T05:04:58;10.80;99.90
32769;DHT22;23049;54.304;8.826;2023-05-16T05:07:24;10.70;99.90
32769;DHT22;23049;54.304;8.826;2023-05-16T05:09:52;10.70;99.90
32769;DHT22;23049;54.304;8.826;2023-05-16T05:12:20;10.80;99.90
32769;DHT22;23049;54.304;8.826;2023-05-16T05:14:46;10.80;99.90
32769;DHT22;23049;54.304;8.826;2023-05-16T05:17:11;10.90;99.90
32769;DHT22;23049;54.304;8.826;2023-05-16T05:19:37;10.70;99.90
32769;DHT22;23049;54.304;8.826;2023-05-16T05:22:02;10.60;99.90
32769;DHT22;23049;54.304;8.826;2023-05-16T05:24:28;11.10;99.90
32769;DHT22;23049;54.304;8.826;2023-05-16T05:26:53;11.70;99.90
32769;DHT22;23049;54.304;8.826;2023-05-16T05:29:19;12.10;99.90
32769;DHT22;23049;54.304;8.826;2023-05-16T05:31:44;12.00;99.90
32769;DHT22;23049;54.304;8.826;2023-05-16T05:34:10;11.90;99.90
32769;DHT22;23049;54.304;8.826;2023-05-16T05:36:35;11.60;99.90
32769;DHT22;23049;54.304;8.826;2023-05-16T05:39:00;11.40;99.90
32769;DHT22;23049;54.304;8.826;2023-05-16T05:41:26;11.40;99.90
32769;DHT22;23049;54.304;8.826;2023-05-16T05:43:52;11.50;99.90
32769;DHT22;23049;54.304;8.826;2023-05-16T05:46:17;11.50;99.90
32769;DHT22;23049;54.304;8.826;2023-05-16T05:48:43;11.60;99.90
32769;DHT22;23049;54.304;8.826;2023-05-16T05:51:08;12.10;99.90
32769;DHT22;23049;54.304;8.826;2023-05-16T05:53:34;12.70;99.90
32769;DHT22;23049;54.304;8.826;2023-05-16T05:55:59;13.10;99.90
32769;DHT22;23049;54.304;8.826;2023-05-16T05:58:25;13.40;99.90
32769;DHT22;23049;54.304;8.826;2023-05-16T06:00:50;13.70;99.90
32769;DHT22;23049;54.304;8.826;2023-05-16T06:03:16;14.00;99.90
32769;DHT22;23049;54.304;8.826;2023-05-16T06:05:41;14.30;99.90
32769;DHT22;23049;54.304;8.826;2023-05-16T06:08:07;15.10;99.90
32769;DHT22;23049;54.304;8.826;2023-05-16T06:10:32;15.60;99.90
32769;DHT22;23049;54.304;8.826;2023-05-16T06:12:58;16.30;99.90
32769;DHT22;23049;54.304;8.826;2023-05-16T06:15:24;16.60;99.90
32769;DHT22;23049;54.304;8.826;2023-05-16T06:17:49;16.70;99.90
32769;DHT22;23049;54.304;8.826;2023-05-16T06:20:15;15.90;99.90
32769;DHT22;23049;54.304;8.826;2023-05-16T06:22:40;15.10;99.90
32769;DHT22;23049;54.304;8.826;2023-05-16T06:25:06;15.20;99.90
32769;DHT22;23049;54.304;8.826;2023-05-16T06:27:32;14.70;99.90
32769;DHT22;23049;54.304;8.826;2023-05-16T06:29:57;14.70;99.90
32769;DHT22;23049;54.304;8.826;2023-05-16T06:32:23;14.30;99.90
32769;DHT22;23049;54.304;8.826;2023-05-16T06:34:48;14.10;99.90
32769;DHT22;23049;54.304;8.826;2023-05-16T06:37:14;13.90;99.90
32769;DHT22;23049;54.304;8.826;2023-05-16T06:39:39;13.30;99.90
32769;DHT22;23049;54.304;8.826;2023-05-16T06:42:05;13.20;99.90
32769;DHT22;23049;54.304;8.826;2023-05-16T06:44:31;12.90;99.90
32769;DHT22;23049;54.304;8.826;2023-05-16T06:46:56;12.90;99.90
32769;DHT22;23049;54.304;8.826;2023-05-16T06:49:22;13.00;99.90
32769;DHT22;23049;54.304;8.826;2023-05-16T06:51:48;12.80;99.90
32769;DHT22;23049;54.304;8.826;2023-05-16T06:54:13;12.80;99.90
32769;DHT22;23049;54.304;8.826;2023-05-16T06:56:39;13.10;99.90
32769;DHT22;23049;54.304;8.826;2023-05-16T06:59:05;13.00;99.90
32769;DHT22;23049;54.304;8.826;2023-05-16T07:01:30;12.70;99.90
32769;DHT22;23049;54.304;8.826;2023-05-16T07:03:56;12.90;99.90
32769;DHT22;23049;54.304;8.826;2023-05-16T07:06:21;13.10;99.90
32769;DHT22;23049;54.304;8.826;2023-05-16T07:08:47;13.10;99.90
32769;DHT22;23049;54.304;8.826;2023-05-16T07:11:13;12.60;99.90
32769;DHT22;23049;54.304;8.826;2023-05-16T07:13:38;12.10;99.90
32769;DHT22;23049;54.304;8.826;2023-05-16T07:16:04;11.70;99.90
32769;DHT22;23049;54.304;8.826;2023-05-16T07:18:29;11.40;99.90
32769;DHT22;23049;54.304;8.826;2023-05-16T07:20:55;11.20;99.90
32769;DHT22;23049;54.304;8.826;2023-05-16T07:23:20;11.40;99.90
32769;DHT22;23049;54.304;8.826;2023-05-16T07:25:46;11.60;99.90
32769;DHT22;23049;54.304;8.826;2023-05-16T07:28:12;11.90;99.90
32769;DHT22;23049;54.304;8.826;2023-05-16T07:30:37;12.00;99.90
32769;DHT22;23049;54.304;8.826;2023-05-16T07:33:03;12.00;99.90
32769;DHT22;23049;54.304;8.826;2023-05-16T07:35:29;12.20;99.90
32769;DHT22;23049;54.304;8.826;2023-05-16T07:37:54;12.30;99.90
32769;DHT22;23049;54.304;8.826;2023-05-16T07:40:20;12.00;99.90
32769;DHT22;23049;54.304;8.826;2023-05-16T07:42:50;11.50;99.90
32769;DHT22;23049;54.304;8.826;2023-05-16T07:45:15;11.60;99.90
32769;DHT22;23049;54.304;8.826;2023-05-16T07:47:41;11.80;99.90
32769;DHT22;23049;54.304;8.826;2023-05-16T07:50:06;12.00;99.90
32769;DHT22;23049;54.304;8.826;2023-05-16T07:52:32;12.40;99.90
32769;DHT22;23049;54.304;8.826;2023-05-16T07:54:58;12.60;99.90
32769;DHT22;23049;54.304;8.826;2023-05-16T07:57:23;12.70;99.90
32769;DHT22;23049;54.304;8.826;2023-05-16T07:59:49;12.80;99.90
32769;DHT22;23049;54.304;8.826;2023-05-16T08:02:16;12.70;99.90
32769;DHT22;23049;54.304;8.826;2023-05-16T08:04:41;12.60;99.90
32769;DHT22;23049;54.304;8.826;2023-05-16T08:07:07;12.50;99.90
32769;DHT22;23049;54.304;8.826;2023-05-16T08:09:33;12.40;99.90
32769;DHT22;23049;54.304;8.826;2023-05-16T08:11:58;12.40;99.90
32769;DHT22;23049;54.304;8.826;2023-05-16T08:14:29;12.50;99.90
32769;DHT22;23049;54.304;8.826;2023-05-16T08:16:54;12.40;99.90
32769;DHT22;23049;54.304;8.826;2023-05-16T08:19:20;12.30;99.90
32769;DHT22;23049;54.304;8.826;2023-05-16T08:21:45;12.40;99.90
32769;DHT22;23049;54.304;8.826;2023-05-16T08:24:11;12.40;99.90
32769;DHT22;23049;54.304;8.826;2023-05-16T08:26:36;12.30;99.90
32769;DHT22;23049;54.304;8.826;2023-05-16T08:29:02;12.50;99.90
32769;DHT22;23049;54.304;8.826;2023-05-16T08:31:29;12.70;99.90
32769;DHT22;23049;54.304;8.826;2023-05-16T08:33:54;12.80;99.90
32769;DHT22;23049;54.304;8.826;2023-05-16T08:36:20;12.80;99.90
32769;DHT22;23049;54.304;8.826;2023-05-16T08:38:45;12.80;99.90
32769;DHT22;23049;54.304;8.826;2023-05-16T08:41:11;12.80;99.90
32769;DHT22;23049;54.304;8.826;2023-05-16T08:43:36;12.80;99.90
32769;DHT22;23049;54.304;8.826;2023-05-16T08:46:02;12.70;99.90
32769;DHT22;23049;54.304;8.826;2023-05-16T08:48:27;12.70;99.90
32769;DHT22;23049;54.304;8.826;2023-05-16T08:50:55;12.70;99.90
32769;DHT22;23049;54.304;8.826;2023-05-16T08:53:21;12.40;99.90
32769;DHT22;23049;54.304;8.826;2023-05-16T08:55:47;12.80;99.90
32769;DHT22;23049;54.304;8.826;2023-05-16T08:58:13;12.90;99.90
32769;DHT22;23049;54.304;8.826;2023-05-16T09:00:39;13.10;99.90
32769;DHT22;23049;54.304;8.826;2023-05-16T09:03:05;13.00;99.90
32769;DHT22;23049;54.304;8.826;2023-05-16T09:05:30;12.80;99.90
32769;DHT22;23049;54.304;8.826;2023-05-16T09:07:56;13.00;99.90
32769;DHT22;23049;54.304;8.826;2023-05-16T09:10:21;13.20;99.90
32769;DHT22;23049;54.304;8.826;2023-05-16T09:12:47;13.40;99.90
32769;DHT22;23049;54.304;8.826;2023-05-16T09:15:12;13.40;99.90
32769;DHT22;23049;54.304;8.826;2023-05-16T09:17:47;13.20;99.90
32769;DHT22;23049;54.304;8.826;2023-05-16T09:20:13;13.10;99.90
32769;DHT22;23049;54.304;8.826;2023-05-16T09:22:40;13.40;99.90
32769;DHT22;23049;54.304;8.826;2023-05-16T09:25:15;13.40;99.90
32769;DHT22;23049;54.304;8.826;2023-05-16T09:27:41;13.10;99.90
32769;DHT22;23049;54.304;8.826;2023-05-16T09:30:06;13.00;99.90
32769;DHT22;23049;54.304;8.826;2023-05-16T09:32:32;12.80;99.90
32769;DHT22;23049;54.304;8.826;2023-05-16T09:34:58;12.70;99.90
32769;DHT22;23049;54.304;8.826;2023-05-16T09:37:24;12.70;99.90
32769;DHT22;23049;54.304;8.826;2023-05-16T09:39:50;12.70;99.90
32769;DHT22;23049;54.304;8.826;2023-05-16T09:42:17;12.70;99.90
32769;DHT22;23049;54.304;8.826;2023-05-16T09:44:46;13.10;99.90
32769;DHT22;23049;54.304;8.826;2023-05-16T09:47:13;13.30;99.90
32769;DHT22;23049;54.304;8.826;2023-05-16T09:49:40;13.50;99.90
32769;DHT22;23049;54.304;8.826;2023-05-16T09:52:05;13.50;99.90
32769;DHT22;23049;54.304;8.826;2023-05-16T09:54:31;13.60;99.90
32769;DHT22;23049;54.304;8.826;2023-05-16T09:56:57;13.80;99.90
32769;DHT22;23049;54.304;8.826;2023-05-16T09:59:22;13.80;99.90
32769;DHT22;23049;54.304;8.826;2023-05-16T10:01:48;13.80;99.90
32769;DHT22;23049;54.304;8.826;2023-05-16T10:04:15;13.70;99.90
32769;DHT22;23049;54.304;8.826;2023-05-16T10:06:41;13.60;99.90
32769;DHT22;23049;54.304;8.826;2023-05-16T10:09:09;13.50;99.90
32769;DHT22;23049;54.304;8.826;2023-05-16T10:11:36;13.50;99.90
32769;DHT22;23049;54.304;8.826;2023-05-16T10:14:01;13.50;99.90
32769;DHT22;23049;54.304;8.826;2023-05-16T10:16:28;13.30;99.90
32769;DHT22;23049;54.304;8.826;2023-05-16T10:18:54;13.30;99.90
32769;DHT22;23049;54.304;8.826;2023-05-16T10:21:20;13.30;99.90
32769;DHT22;23049;54.304;8.826;2023-05-16T10:23:47;13.20;99.90
32769;DHT22;23049;54.304;8.826;2023-05-16T10:26:15;13.10;99.90
32769;DHT22;23049;54.304;8.826;2023-05-16T10:28:40;12.90;99.90
32769;DHT22;23049;54.304;8.826;2023-05-16T10:31:06;13.10;99.90
32769;DHT22;23049;54.304;8.826;2023-05-16T10:33:32;13.20;99.90
32769;DHT22;23049;54.304;8.826;2023-05-16T10:35:58;13.30;99.90
32769;DHT22;23049;54.304;8.826;2023-05-16T10:38:26;13.50;99.90
32769;DHT22;23049;54.304;8.826;2023-05-16T10:40:52;13.80;99.90
32769;DHT22;23049;54.304;8.826;2023-05-16T10:43:28;13.90;99.90
32769;DHT22;23049;54.304;8.826;2023-05-16T10:46:04;13.80;99.90
32769;DHT22;23049;54.304;8.826;2023-05-16T10:48:32;14.00;99.90
32769;DHT22;23049;54.304;8.826;2023-05-16T10:50:57;14.10;99.90
32769;DHT22;23049;54.304;8.826;2023-05-16T11:01:55;13.80;99.90
32769;DHT22;23049;54.304;8.826;2023-05-16T11:09:26;14.00;99.90
32769;DHT22;23049;54.304;8.826;2023-05-16T11:14:27;13.90;99.90
32769;DHT22;23049;54.304;8.826;2023-05-16T11:17:10;14.00;99.90
32769;DHT22;23049;54.304;8.826;2023-05-16T11:25:02;14.70;99.90
32769;DHT22;23049;54.304;8.826;2023-05-16T11:27:32;14.90;99.90
32769;DHT22;23049;54.304;8.826;2023-05-16T11:32:30;14.70;99.90
32769;DHT22;23049;54.304;8.826;2023-05-16T11:34:56;15.10;99.90
32769;DHT22;23049;54.304;8.826;2023-05-16T11:37:22;14.90;99.90
32769;DHT22;23049;54.304;8.826;2023-05-16T11:39:47;14.40;99.90
32769;DHT22;23049;54.304;8.826;2023-05-16T11:42:13;14.60;99.90
32769;DHT22;23049;54.304;8.826;2023-05-16T11:44:39;14.90;99.90
32769;DHT22;23049;54.304;8.826;2023-05-16T11:47:05;14.60;99.90
32769;DHT22;23049;54.304;8.826;2023-05-16T11:49:32;14.80;99.90
32769;DHT22;23049;54.304;8.826;2023-05-16T11:51:57;14.90;99.90
32769;DHT22;23049;54.304;8.826;2023-05-16T11:54:23;14.80;99.90
32769;DHT22;23049;54.304;8.826;2023-05-16T11:56:52;14.40;99.90
32769;DHT22;23049;54.304;8.826;2023-05-16T11:59:18;14.50;99.90
32769;DHT22;23049;54.304;8.826;2023-05-16T12:01:43;14.00;99.90
32769;DHT22;23049;54.304;8.826;2023-05-16T12:04:12;13.80;99.90
32769;DHT22;23049;54.304;8.826;2023-05-16T12:06:38;13.60;99.90
32769;DHT22;23049;54.304;8.826;2023-05-16T12:09:04;13.40;99.90
32769;DHT22;23049;54.304;8.826;2023-05-16T12:11:36;13.70;99.90
32769;DHT22;23049;54.304;8.826;2023-05-16T12:14:03;13.70;99.90
32769;DHT22;23049;54.304;8.826;2023-05-16T12:16:29;13.70;99.90
32769;DHT22;23049;54.304;8.826;2023-05-16T12:18:56;13.60;99.90
32769;DHT22;23049;54.304;8.826;2023-05-16T12:21:21;13.60;99.90
32769;DHT22;23049;54.304;8.826;2023-05-16T12:23:47;13.20;99.90
32769;DHT22;23049;54.304;8.826;2023-05-16T12:26:12;13.40;99.90
32769;DHT22;23049;54.304;8.826;2023-05-16T12:28:38;13.40;99.90
32769;DHT22;23049;54.304;8.826;2023-05-16T12:31:10;13.40;99.90
32769;DHT22;23049;54.304;8.826;2023-05-16T12:33:35;13.40;99.90
32769;DHT22;23049;54.304;8.826;2023-05-16T12:36:01;13.40;99.90
32769;DHT22;23049;54.304;8.826;2023-05-16T12:38:28;13.30;99.90
32769;DHT22;23049;54.304;8.826;2023-05-16T12:40:57;13.20;99.90
32769;DHT22;23049;54.304;8.826;2023-05-16T12:43:23;13.10;99.90
32769;DHT22;23049;54.304;8.826;2023-05-16T12:45:52;13.00;99.90
32769;DHT22;23049;54.304;8.826;2023-05-16T12:48:19;13.00;99.90
32769;DHT22;23049;54.304;8.826;2023-05-16T12:50:44;12.90;99.90
32769;DHT22;23049;54.304;8.826;2023-05-16T12:53:13;12.80;99.90
32769;DHT22;23049;54.304;8.826;2023-05-16T12:55:39;12.80;99.90
32769;DHT22;23049;54.304;8.826;2023-05-16T12:58:04;12.70;99.90
32769;DHT22;23049;54.304;8.826;2023-05-16T13:00:30;12.70;99.90
32769;DHT22;23049;54.304;8.826;2023-05-16T13:02:56;12.70;99.90
32769;DHT22;23049;54.304;8.826;2023-05-16T13:05:21;12.80;99.90
32769;DHT22;23049;54.304;8.826;2023-05-16T13:07:48;12.80;99.90
32769;DHT22;23049;54.304;8.826;2023-05-16T13:10:16;13.00;99.90
32769;DHT22;23049;54.304;8.826;2023-05-16T13:12:41;13.40;99.90
32769;DHT22;23049;54.304;8.826;2023-05-16T13:15:07;13.60;99.90
32769;DHT22;23049;54.304;8.826;2023-05-16T13:17:34;14.00;99.90
32769;DHT22;23049;54.304;8.826;2023-05-16T13:19:59;14.60;99.90
32769;DHT22;23049;54.304;8.826;2023-05-16T13:22:26;15.10;99.90
32769;DHT22;23049;54.304;8.826;2023-05-16T13:24:51;15.30;99.90
32769;DHT22;23049;54.304;8.826;2023-05-16T13:27:17;15.10;99.90
32769;DHT22;23049;54.304;8.826;2023-05-16T13:29:43;15.10;99.90
32769;DHT22;23049;54.304;8.826;2023-05-16T13:32:08;14.90;99.90
32769;DHT22;23049;54.304;8.826;2023-05-16T13:34:34;14.70;99.90
32769;DHT22;23049;54.304;8.826;2023-05-16T13:36:59;14.40;99.90
32769;DHT22;23049;54.304;8.826;2023-05-16T13:39:25;14.30;99.90
32769;DHT22;23049;54.304;8.826;2023-05-16T13:41:50;14.20;99.90
32769;DHT22;23049;54.304;8.826;2023-05-16T13:44:16;14.30;99.90
32769;DHT22;23049;54.304;8.826;2023-05-16T13:46:42;14.50;99.90
32769;DHT22;23049;54.304;8.826;2023-05-16T13:49:08;14.30;99.90
32769;DHT22;23049;54.304;8.826;2023-05-16T13:51:33;13.70;99.90
32769;DHT22;23049;54.304;8.826;2023-05-16T13:53:59;13.40;99.90
32769;DHT22;23049;54.304;8.826;2023-05-16T13:56:24;13.30;99.90
32769;DHT22;23049;54.304;8.826;2023-05-16T13:58:50;13.30;99.90
32769;DHT22;23049;54.304;8.826;2023-05-16T14:01:16;13.10;99.90
32769;DHT22;23049;54.304;8.826;2023-05-16T14:03:41;13.00;99.90
32769;DHT22;23049;54.304;8.826;2023-05-16T14:06:07;12.90;99.90
32769;DHT22;23049;54.304;8.826;2023-05-16T14:08:33;12.70;99.90
32769;DHT22;23049;54.304;8.826;2023-05-16T14:10:58;12.50;99.90
32769;DHT22;23049;54.304;8.826;2023-05-16T14:13:24;12.20;99.90
32769;DHT22;23049;54.304;8.826;2023-05-16T14:15:49;11.90;99.90
32769;DHT22;23049;54.304;8.826;2023-05-16T14:18:15;11.80;99.90
32769;DHT22;23049;54.304;8.826;2023-05-16T14:20:41;11.60;99.90
32769;DHT22;23049;54.304;8.826;2023-05-16T14:23:07;11.40;99.90
32769;DHT22;23049;54.304;8.826;2023-05-16T14:25:32;11.30;99.90
32769;DHT22;23049;54.304;8.826;2023-05-16T14:27:58;11.10;99.90
32769;DHT22;23049;54.304;8.826;2023-05-16T14:30:23;11.00;99.90
32769;DHT22;23049;54.304;8.826;2023-05-16T14:32:49;11.00;99.90
32769;DHT22;23049;54.304;8.826;2023-05-16T14:35:15;11.00;99.90
32769;DHT22;23049;54.304;8.826;2023-05-16T14:37:40;11.00;99.90
32769;DHT22;23049;54.304;8.826;2023-05-16T14:40:06;11.00;99.90
32769;DHT22;23049;54.304;8.826;2023-05-16T14:42:33;11.30;99.90
32769;DHT22;23049;54.304;8.826;2023-05-16T14:44:58;11.40;99.90
32769;DHT22;23049;54.304;8.826;2023-05-16T14:47:24;11.70;99.90
32769;DHT22;23049;54.304;8.826;2023-05-16T14:49:49;12.10;99.90
32769;DHT22;23049;54.304;8.826;2023-05-16T14:52:17;12.20;99.90
32769;DHT22;23049;54.304;8.826;2023-05-16T14:54:42;12.20;99.90
32769;DHT22;23049;54.304;8.826;2023-05-16T14:57:08;12.40;99.90
32769;DHT22;23049;54.304;8.826;2023-05-16T14:59:33;12.40;99.90
32769;DHT22;23049;54.304;8.826;2023-05-16T15:01:59;12.50;99.90
32769;DHT22;23049;54.304;8.826;2023-05-16T15:04:26;12.50;99.90
32769;DHT22;23049;54.304;8.826;2023-05-16T15:06:51;12.70;99.90
32769;DHT22;23049;54.304;8.826;2023-05-16T15:09:17;12.90;99.90
32769;DHT22;23049;54.304;8.826;2023-05-16T15:11:43;12.90;99.90
32769;DHT22;23049;54.304;8.826;2023-05-16T15:14:09;12.90;99.90
32769;DHT22;23049;54.304;8.826;2023-05-16T15:16:34;12.70;99.90
32769;DHT22;23049;54.304;8.826;2023-05-16T15:19:00;12.70;99.90
32769;DHT22;23049;54.304;8.826;2023-05-16T15:21:25;12.80;99.90
32769;DHT22;23049;54.304;8.826;2023-05-16T15:23:51;12.70;99.90
32769;DHT22;23049;54.304;8.826;2023-05-16T15:26:17;12.40;99.90
32769;DHT22;23049;54.304;8.826;2023-05-16T15:28:43;12.10;99.90
32769;DHT22;23049;54.304;8.826;2023-05-16T15:31:08;11.90;99.90
32769;DHT22;23049;54.304;8.826;2023-05-16T15:33:34;11.90;99.90
32769;DHT22;23049;54.304;8.826;2023-05-16T15:36:00;12.00;99.90
32769;DHT22;23049;54.304;8.826;2023-05-16T15:38:26;12.20;99.90
32769;DHT22;23049;54.304;8.826;2023-05-16T15:40:51;12.30;99.90
32769;DHT22;23049;54.304;8.826;2023-05-16T15:43:17;12.30;99.90
32769;DHT22;23049;54.304;8.826;2023-05-16T15:45:42;12.20;99.90
32769;DHT22;23049;54.304;8.826;2023-05-16T15:48:08;12.20;99.90
32769;DHT22;23049;54.304;8.826;2023-05-16T15:50:34;12.10;99.90
32769;DHT22;23049;54.304;8.826;2023-05-16T15:52:59;12.10;99.90
32769;DHT22;23049;54.304;8.826;2023-05-16T15:55:25;12.10;99.90
32769;DHT22;23049;54.304;8.826;2023-05-16T15:57:50;12.00;99.90
32769;DHT22;23049;54.304;8.826;2023-05-16T16:00:16;11.90;99.90